Time;durP1;ratioP1;P1;durP2;ratioP2;P2;SDS_P1;SDS_P2;PMS_P1;PMS_P2;Temp;Humidity;BMP_temperature;BMP_pressure;BME280_temperature;BME280_humidity;BME280_pressure;Samples;Min_cycle;Max_cycle;Signal;HPM_P1;HPM_P2
2022/12/13 00:01:12;;;;;;;1.37;1.27;;;;;;;;;;7390585;19;20167;-64
2022/12/13 00:03:38;;;;;;;1.73;1.23;;;;;;;;;;7387146;19;20176;-64
2022/12/13 00:06:05;;;;;;;1.53;1.43;;;;;;;;;;7385941;19;20150;-63
2022/12/13 00:08:30;;;;;;;1.13;0.93;;;;;;;;;;7389337;19;20160;-63
2022/12/13 00:11:00;;;;;;;2.47;1.30;;;;;;;;;;7391092;19;20531;-63
2022/12/13 00:13:25;;;;;;;1.07;1.00;;;;;;;;;;7386443;19;20662;-64
2022/12/13 00:15:55;;;;;;;1.50;1.40;;;;;;;;;;7390744;19;20120;-63
2022/12/13 00:18:21;;;;;;;1.50;0.80;;;;;;;;;;7388266;19;20842;-63
2022/12/13 00:20:46;;;;;;;1.60;1.10;;;;;;;;;;7387137;19;20133;-63
2022/12/13 00:23:11;;;;;;;0.83;0.83;;;;;;;;;;7387210;19;20153;-64
2022/12/13 00:25:36;;;;;;;1.33;1.33;;;;;;;;;;7389857;19;20121;-63
2022/12/13 00:28:02;;;;;;;1.60;1.50;;;;;;;;;;7389741;19;20133;-64
2022/12/13 00:30:30;;;;;;;2.13;1.67;;;;;;;;;;7388225;19;20174;-64
2022/12/13 00:32:55;;;;;;;1.60;1.50;;;;;;;;;;7387736;19;20153;-63
2022/12/13 00:35:21;;;;;;;1.07;1.03;;;;;;;;;;7389846;19;20182;-64
2022/12/13 00:37:46;;;;;;;1.63;1.33;;;;;;;;;;7387431;19;20575;-64
2022/12/13 00:40:11;;;;;;;2.07;1.87;;;;;;;;;;7386983;19;20121;-64
2022/12/13 00:42:37;;;;;;;1.20;1.17;;;;;;;;;;7384727;19;20627;-63
2022/12/13 00:45:02;;;;;;;1.23;0.97;;;;;;;;;;7389996;19;20135;-64
2022/12/13 00:47:28;;;;;;;1.07;1.07;;;;;;;;;;7389579;19;20453;-64
2022/12/13 00:49:53;;;;;;;1.70;1.23;;;;;;;;;;7388258;19;20121;-64
2022/12/13 00:52:18;;;;;;;1.40;1.30;;;;;;;;;;7386824;19;20141;-64
2022/12/13 00:54:43;;;;;;;1.70;1.60;;;;;;;;;;7384504;19;20166;-64
2022/12/13 00:57:09;;;;;;;0.80;0.80;;;;;;;;;;7388679;19;20121;-63
2022/12/13 00:59:34;;;;;;;0.73;0.73;;;;;;;;;;7388487;19;20145;-63
2022/12/13 01:01:59;;;;;;;2.13;1.10;;;;;;;;;;7386864;19;20623;-64
2022/12/13 01:04:25;;;;;;;1.00;1.00;;;;;;;;;;7389627;19;20527;-63
2022/12/13 01:06:50;;;;;;;1.90;1.47;;;;;;;;;;7389409;19;20120;-64
2022/12/13 01:09:21;;;;;;;1.07;1.07;;;;;;;;;;7385542;19;20137;-63
2022/12/13 01:11:47;;;;;;;1.07;1.07;;;;;;;;;;7385867;19;20593;-63
2022/12/13 01:14:12;;;;;;;1.67;1.43;;;;;;;;;;7385970;19;20121;-64
2022/12/13 01:16:38;;;;;;;0.80;0.80;;;;;;;;;;7388590;19;20156;-64
2022/12/13 01:19:03;;;;;;;0.70;0.70;;;;;;;;;;7387414;19;20141;-64
2022/12/13 01:21:28;;;;;;;1.60;1.17;;;;;;;;;;7386892;19;20125;-64
2022/12/13 01:23:56;;;;;;;0.87;0.87;;;;;;;;;;7386882;19;20175;-63
2022/12/13 01:26:21;;;;;;;0.40;0.40;;;;;;;;;;7386997;19;20552;-63
2022/12/13 01:28:47;;;;;;;1.20;1.07;;;;;;;;;;7379097;19;20125;-64
2022/12/13 01:31:15;;;;;;;3.43;2.00;;;;;;;;;;7387260;19;20167;-64
2022/12/13 01:33:41;;;;;;;1.50;0.73;;;;;;;;;;7380378;19;20157;-63
2022/12/13 01:36:10;;;;;;;0.50;0.50;;;;;;;;;;7387468;19;20128;-62
2022/12/13 01:38:35;;;;;;;0.93;0.87;;;;;;;;;;7386501;19;20660;-63
2022/12/13 01:41:01;;;;;;;2.30;1.07;;;;;;;;;;7387840;19;20136;-63
2022/12/13 01:43:35;;;;;;;0.50;0.50;;;;;;;;;;7386079;19;20152;-63
2022/12/13 01:46:01;;;;;;;0.97;0.90;;;;;;;;;;7385913;19;20630;-63
2022/12/13 01:48:30;;;;;;;0.83;0.70;;;;;;;;;;7385630;19;20146;-63
2022/12/13 01:50:59;;;;;;;0.40;0.40;;;;;;;;;;7384373;19;20121;-63
2022/12/13 01:53:28;;;;;;;0.50;0.50;;;;;;;;;;7388128;19;20606;-63
2022/12/13 01:55:57;;;;;;;2.60;1.40;;;;;;;;;;7394286;19;20220;-63
2022/12/13 01:58:23;;;;;;;0.60;0.60;;;;;;;;;;7393753;19;20145;-63
2022/12/13 02:00:48;;;;;;;1.30;1.27;;;;;;;;;;7395028;19;20188;-63
2022/12/13 02:03:15;;;;;;;0.83;0.73;;;;;;;;;;7390840;19;20626;-62
2022/12/13 02:05:43;;;;;;;1.20;0.90;;;;;;;;;;7394619;19;20582;-63
2022/12/13 02:08:10;;;;;;;2.20;1.83;;;;;;;;;;7390177;19;20128;-63
2022/12/13 02:10:36;;;;;;;2.30;1.30;;;;;;;;;;7392878;19;20180;-63
2022/12/13 02:13:02;;;;;;;1.67;1.33;;;;;;;;;;7390322;19;20595;-63
2022/12/13 02:15:35;;;;;;;1.07;1.03;;;;;;;;;;7393766;19;20121;-63
2022/12/13 02:18:13;;;;;;;0.60;0.60;;;;;;;;;;7393119;19;20121;-63
2022/12/13 02:20:48;;;;;;;1.20;1.10;;;;;;;;;;7393091;19;20124;-63
2022/12/13 02:23:25;;;;;;;0.70;0.70;;;;;;;;;;7391860;19;20159;-63
2022/12/13 02:25:55;;;;;;;0.70;0.70;;;;;;;;;;7389092;19;20141;-63
2022/12/13 02:29:02;;;;;;;0.90;0.90;;;;;;;;;;7393060;19;20150;-63
2022/12/13 02:31:46;;;;;;;0.77;0.77;;;;;;;;;;7389745;19;20701;-63
2022/12/13 02:34:24;;;;;;;0.87;0.87;;;;;;;;;;7391749;19;20232;-62
2022/12/13 02:37:02;;;;;;;0.67;0.67;;;;;;;;;;7391254;19;20117;-62
2022/12/13 02:39:38;;;;;;;0.97;0.97;;;;;;;;;;7393691;19;20137;-63
2022/12/13 02:42:17;;;;;;;0.63;0.63;;;;;;;;;;7386756;19;20145;-63
2022/12/13 02:45:03;;;;;;;1.10;1.00;;;;;;;;;;7392339;19;20888;-63
2022/12/13 02:47:30;;;;;;;1.43;0.73;;;;;;;;;;7395412;19;20121;-62
2022/12/13 02:49:58;;;;;;;1.93;1.73;;;;;;;;;;7390728;19;20131;-63
2022/12/13 02:52:26;;;;;;;1.07;0.90;;;;;;;;;;7392084;19;20170;-63
2022/12/13 02:54:55;;;;;;;1.33;1.00;;;;;;;;;;7393025;19;20145;-62
2022/12/13 02:57:32;;;;;;;0.50;0.50;;;;;;;;;;7392194;19;20494;-62
2022/12/13 03:00:20;;;;;;;0.87;0.83;;;;;;;;;;7389344;19;20116;-63
2022/12/13 03:02:58;;;;;;;1.03;0.77;;;;;;;;;;7385762;19;20198;-63
2022/12/13 03:08:27;;;;;;;1.13;1.13;;;;;;;;;;7373667;19;20889;-63
2022/12/13 03:11:07;;;;;;;0.43;0.43;;;;;;;;;;7380723;19;20209;-63
2022/12/13 03:13:39;;;;;;;1.00;0.77;;;;;;;;;;7377168;19;20171;-63
2022/12/13 03:16:28;;;;;;;3.30;1.23;;;;;;;;;;7374920;19;21121;-63
2022/12/13 03:18:58;;;;;;;0.80;0.80;;;;;;;;;;7380712;19;20153;-62
2022/12/13 03:21:24;;;;;;;0.70;0.70;;;;;;;;;;7385358;19;20555;-63
2022/12/13 03:23:49;;;;;;;1.40;1.07;;;;;;;;;;7381669;19;20180;-63
2022/12/13 03:26:21;;;;;;;0.83;0.83;;;;;;;;;;7378105;19;20137;-64
2022/12/13 03:28:46;;;;;;;1.53;1.20;;;;;;;;;;7381119;19;20120;-62
2022/12/13 03:31:12;;;;;;;1.33;1.27;;;;;;;;;;7379897;19;20204;-63
2022/12/13 03:33:37;;;;;;;1.07;0.67;;;;;;;;;;7376564;19;20148;-63
2022/12/13 03:36:04;;;;;;;0.77;0.77;;;;;;;;;;7381730;19;20161;-62
2022/12/13 03:38:30;;;;;;;0.60;0.60;;;;;;;;;;7379742;19;21499;-63
2022/12/13 03:41:02;;;;;;;0.70;0.70;;;;;;;;;;7376585;19;20141;-63
2022/12/13 03:43:27;;;;;;;0.83;0.83;;;;;;;;;;7378169;19;20153;-63
2022/12/13 03:45:53;;;;;;;0.70;0.60;;;;;;;;;;7375340;19;20133;-63
2022/12/13 03:48:19;;;;;;;1.13;1.00;;;;;;;;;;7377475;19;20151;-62
2022/12/13 03:50:44;;;;;;;0.63;0.63;;;;;;;;;;7377854;19;20622;-63
2022/12/13 03:53:09;;;;;;;0.90;0.83;;;;;;;;;;7383212;19;20152;-63
2022/12/13 03:55:35;;;;;;;0.60;0.60;;;;;;;;;;7380736;19;20128;-63
2022/12/13 03:58:00;;;;;;;1.03;1.00;;;;;;;;;;7382181;19;20456;-62
2022/12/13 04:00:25;;;;;;;1.40;1.30;;;;;;;;;;7380626;19;20620;-62
2022/12/13 04:02:51;;;;;;;1.40;1.30;;;;;;;;;;7381583;19;20192;-62
2022/12/13 04:05:16;;;;;;;1.43;1.23;;;;;;;;;;7384337;19;20121;-62
2022/12/13 04:07:42;;;;;;;0.80;0.80;;;;;;;;;;7374964;19;20129;-63
2022/12/13 04:10:07;;;;;;;0.73;0.73;;;;;;;;;;7379045;19;20607;-63
2022/12/13 04:15:17;;;;;;;0.90;0.90;;;;;;;;;;7380663;19;20159;-63
2022/12/13 04:17:42;;;;;;;0.90;0.90;;;;;;;;;;7380188;19;20121;-63
2022/12/13 04:20:08;;;;;;;0.93;0.70;;;;;;;;;;7381062;19;20125;-63
2022/12/13 04:22:33;;;;;;;1.13;0.70;;;;;;;;;;7381102;19;20556;-63
2022/12/13 04:24:58;;;;;;;0.60;0.60;;;;;;;;;;7379218;19;20591;-63
2022/12/13 04:27:23;;;;;;;0.47;0.47;;;;;;;;;;7381845;19;21322;-62
2022/12/13 04:29:49;;;;;;;1.03;0.60;;;;;;;;;;7374626;19;20128;-62
2022/12/13 04:32:14;;;;;;;0.90;0.90;;;;;;;;;;7370597;19;20145;-63
2022/12/13 04:34:39;;;;;;;0.70;0.70;;;;;;;;;;7386090;19;20586;-63
2022/12/13 04:37:05;;;;;;;1.00;1.00;;;;;;;;;;7376221;19;20197;-62
2022/12/13 04:39:30;;;;;;;0.87;0.87;;;;;;;;;;7377965;19;20120;-62
2022/12/13 04:41:56;;;;;;;0.93;0.93;;;;;;;;;;7377238;19;20141;-62
2022/12/13 04:44:21;;;;;;;0.70;0.70;;;;;;;;;;7376123;19;20680;-62
2022/12/13 04:46:46;;;;;;;0.67;0.67;;;;;;;;;;7376182;19;20124;-63
2022/12/13 04:49:11;;;;;;;1.33;1.23;;;;;;;;;;7380298;19;20121;-63
2022/12/13 04:51:37;;;;;;;0.77;0.77;;;;;;;;;;7372561;19;20140;-63
2022/12/13 04:54:02;;;;;;;1.10;1.10;;;;;;;;;;7382951;19;20586;-63
2022/12/13 04:56:27;;;;;;;0.93;0.93;;;;;;;;;;7376503;19;20132;-63
2022/12/13 04:58:53;;;;;;;0.83;0.73;;;;;;;;;;7381952;19;20117;-63
2022/12/13 05:01:18;;;;;;;0.83;0.83;;;;;;;;;;7371772;19;20139;-63
2022/12/13 05:03:44;;;;;;;0.60;0.60;;;;;;;;;;7375962;19;20478;-63
2022/12/13 05:06:12;;;;;;;1.10;1.07;;;;;;;;;;7379444;19;20128;-63
2022/12/13 05:08:37;;;;;;;0.70;0.70;;;;;;;;;;7374439;19;20139;-63
2022/12/13 05:11:04;;;;;;;1.13;1.10;;;;;;;;;;7379131;19;20493;-63
2022/12/13 05:13:29;;;;;;;1.20;1.20;;;;;;;;;;7385098;19;20156;-63
2022/12/13 05:15:56;;;;;;;0.57;0.57;;;;;;;;;;7381003;19;20124;-62
2022/12/13 05:18:21;;;;;;;0.80;0.80;;;;;;;;;;7384832;19;20658;-63
2022/12/13 05:20:47;;;;;;;0.70;0.70;;;;;;;;;;7383104;19;20164;-63
2022/12/13 05:23:12;;;;;;;0.50;0.50;;;;;;;;;;7379089;19;20209;-63
2022/12/13 05:25:37;;;;;;;0.53;0.53;;;;;;;;;;7379567;19;20146;-63
2022/12/13 05:28:04;;;;;;;1.13;1.00;;;;;;;;;;7390453;19;20117;-63
2022/12/13 05:30:29;;;;;;;1.17;1.07;;;;;;;;;;7388717;19;20200;-63
2022/12/13 05:32:54;;;;;;;1.37;1.27;;;;;;;;;;7391824;19;20173;-63
2022/12/13 05:35:20;;;;;;;2.10;1.17;;;;;;;;;;7396099;19;20129;-63
2022/12/13 05:37:45;;;;;;;1.10;1.03;;;;;;;;;;7397099;19;20133;-63
2022/12/13 05:40:10;;;;;;;1.00;0.93;;;;;;;;;;7382325;19;20128;-63
2022/12/13 05:42:37;;;;;;;1.60;1.20;;;;;;;;;;7384326;19;20155;-63
2022/12/13 05:45:04;;;;;;;0.83;0.83;;;;;;;;;;7382891;19;20599;-63
2022/12/13 05:47:30;;;;;;;0.60;0.60;;;;;;;;;;7381995;19;20137;-63
2022/12/13 05:49:55;;;;;;;0.93;0.90;;;;;;;;;;7381074;19;20124;-63
2022/12/13 05:52:21;;;;;;;0.83;0.60;;;;;;;;;;7385877;19;20607;-63
2022/12/13 05:54:46;;;;;;;0.70;0.70;;;;;;;;;;7384860;19;20132;-63
2022/12/13 05:57:12;;;;;;;1.00;1.00;;;;;;;;;;7383940;19;20128;-63
2022/12/13 05:59:37;;;;;;;1.07;1.07;;;;;;;;;;7370298;19;20226;-63
2022/12/13 06:02:03;;;;;;;1.27;0.90;;;;;;;;;;7353784;19;20155;-63
2022/12/13 06:04:28;;;;;;;1.53;0.90;;;;;;;;;;7378119;19;23378;-63
2022/12/13 06:06:53;;;;;;;0.90;0.90;;;;;;;;;;7363416;19;20195;-63
2022/12/13 06:09:19;;;;;;;0.87;0.60;;;;;;;;;;7361554;19;20540;-63
2022/12/13 06:11:45;;;;;;;0.70;0.70;;;;;;;;;;7378386;19;20124;-63
2022/12/13 06:14:10;;;;;;;1.13;0.77;;;;;;;;;;7374413;19;20138;-63
2022/12/13 06:16:35;;;;;;;0.50;0.50;;;;;;;;;;7368581;19;20136;-63
2022/12/13 06:19:00;;;;;;;0.80;0.80;;;;;;;;;;7382034;19;20570;-63
2022/12/13 06:21:26;;;;;;;1.50;1.40;;;;;;;;;;7375312;19;20128;-65
2022/12/13 06:23:51;;;;;;;1.33;0.97;;;;;;;;;;7369603;19;20152;-64
2022/12/13 06:26:16;;;;;;;1.73;0.60;;;;;;;;;;7378828;19;20144;-64
2022/12/13 06:28:42;;;;;;;1.00;1.00;;;;;;;;;;7373286;19;20128;-63
2022/12/13 06:31:07;;;;;;;0.73;0.70;;;;;;;;;;7377892;19;20135;-63
2022/12/13 06:33:36;;;;;;;2.27;0.90;;;;;;;;;;7379913;19;20167;-63
2022/12/13 06:36:03;;;;;;;0.80;0.80;;;;;;;;;;7386354;19;20129;-63
2022/12/13 06:38:29;;;;;;;0.90;0.90;;;;;;;;;;7390102;19;20113;-63
2022/12/13 06:40:54;;;;;;;0.53;0.53;;;;;;;;;;7381318;19;20142;-64
2022/12/13 06:43:19;;;;;;;1.30;0.97;;;;;;;;;;7383856;19;20204;-63
2022/12/13 06:45:45;;;;;;;1.30;0.77;;;;;;;;;;7376248;19;20643;-63
2022/12/13 06:48:11;;;;;;;0.70;0.70;;;;;;;;;;7385468;19;20193;-64
2022/12/13 18:51:09;;;;;;;0.87;0.87;;;;;;;;;;7379881;19;20145;-63
2022/12/13 18:53:36;;;;;;;0.67;0.67;;;;;;;;;;7387147;19;20685;-63
2022/12/13 18:56:12;;;;;;;1.30;1.10;;;;;;;;;;7385091;19;20129;-64
2022/12/13 18:58:40;;;;;;;0.97;0.97;;;;;;;;;;7374534;19;20167;-64
2022/12/13 19:01:08;;;;;;;0.70;0.70;;;;;;;;;;7390999;19;20136;-63
2022/12/13 19:03:35;;;;;;;1.07;1.00;;;;;;;;;;7382711;19;20164;-63
2022/12/13 19:06:01;;;;;;;1.77;1.63;;;;;;;;;;7380424;19;20117;-63
2022/12/13 19:08:27;;;;;;;0.50;0.50;;;;;;;;;;7375632;19;20508;-63
2022/12/13 19:10:57;;;;;;;0.73;0.63;;;;;;;;;;7383671;19;22271;-63
2022/12/13 19:13:23;;;;;;;1.20;1.13;;;;;;;;;;7367681;19;20655;-63
2022/12/13 19:15:53;;;;;;;1.60;1.03;;;;;;;;;;7357218;19;20129;-62
2022/12/13 19:18:18;;;;;;;0.93;0.90;;;;;;;;;;7366576;19;20156;-64
2022/12/13 19:20:46;;;;;;;1.83;1.67;;;;;;;;;;7377138;19;20137;-62
2022/12/13 19:23:11;;;;;;;3.50;1.47;;;;;;;;;;7382494;19;20156;-63
2022/12/13 19:25:36;;;;;;;1.37;1.20;;;;;;;;;;7374356;19;20121;-64
2022/12/13 19:28:01;;;;;;;3.13;1.47;;;;;;;;;;7369220;19;20140;-64
2022/12/13 19:30:27;;;;;;;1.07;1.00;;;;;;;;;;7372356;19;20137;-64
2022/12/13 19:32:52;;;;;;;3.47;0.87;;;;;;;;;;7373328;19;20160;-63
2022/12/13 19:35:17;;;;;;;0.67;0.67;;;;;;;;;;7367053;19;20121;-62
2022/12/13 19:37:43;;;;;;;0.73;0.73;;;;;;;;;;7373318;19;20148;-62
2022/12/13 19:40:08;;;;;;;1.67;1.40;;;;;;;;;;7379099;19;20184;-62
2022/12/13 19:42:34;;;;;;;0.53;0.53;;;;;;;;;;7364521;19;20149;-62
2022/12/13 19:44:59;;;;;;;0.47;0.47;;;;;;;;;;7386622;19;20125;-63
2022/12/13 19:47:24;;;;;;;0.50;0.50;;;;;;;;;;7368817;19;20117;-62
2022/12/13 19:49:50;;;;;;;0.63;0.63;;;;;;;;;;7377688;19;20457;-63
2022/12/13 19:52:15;;;;;;;0.83;0.83;;;;;;;;;;7371012;19;20232;-63
2022/12/13 19:54:41;;;;;;;2.10;0.90;;;;;;;;;;7367963;19;20113;-63
2022/12/13 19:57:06;;;;;;;1.17;1.13;;;;;;;;;;7373273;19;20480;-63
2022/12/13 19:59:32;;;;;;;1.13;0.93;;;;;;;;;;7350195;19;20216;-63
2022/12/13 20:01:57;;;;;;;0.70;0.70;;;;;;;;;;7353813;19;20145;-63
2022/12/13 20:04:22;;;;;;;1.73;1.63;;;;;;;;;;7371860;19;20143;-63
2022/12/13 20:06:47;;;;;;;0.87;0.87;;;;;;;;;;7382969;19;20230;-63
2022/12/13 20:09:13;;;;;;;1.53;1.13;;;;;;;;;;7381299;19;20135;-63
2022/12/13 20:11:38;;;;;;;1.33;1.23;;;;;;;;;;7380060;19;20498;-63
2022/12/13 20:14:03;;;;;;;1.40;1.30;;;;;;;;;;7359442;19;20483;-63
2022/12/13 20:16:29;;;;;;;1.27;1.27;;;;;;;;;;7376415;19;20137;-62
2022/12/13 20:18:56;;;;;;;3.03;1.50;;;;;;;;;;7373045;19;20120;-63
2022/12/13 20:21:22;;;;;;;1.23;1.13;;;;;;;;;;7363767;19;21519;-63
2022/12/13 20:23:47;;;;;;;1.00;1.00;;;;;;;;;;7357880;19;20145;-63
2022/12/13 20:26:14;;;;;;;0.80;0.80;;;;;;;;;;7382227;19;20160;-63
2022/12/13 20:28:39;;;;;;;2.17;1.37;;;;;;;;;;7377996;19;20146;-63
2022/12/13 20:31:06;;;;;;;1.87;1.40;;;;;;;;;;7379706;19;20216;-63
2022/12/13 20:33:32;;;;;;;1.90;1.47;;;;;;;;;;7360957;19;20148;-63
2022/12/13 20:36:12;;;;;;;0.97;0.97;;;;;;;;;;7366586;19;20641;-63
2022/12/13 20:38:38;;;;;;;1.00;0.97;;;;;;;;;;7357515;19;20420;-63
2022/12/13 20:41:04;;;;;;;2.23;1.57;;;;;;;;;;7361625;19;20153;-63
2022/12/13 20:43:31;;;;;;;1.53;1.43;;;;;;;;;;7370462;19;20156;-63
2022/12/13 20:46:03;;;;;;;1.40;1.30;;;;;;;;;;7372142;19;20121;-62
2022/12/13 20:48:29;;;;;;;4.50;1.10;;;;;;;;;;7376202;19;20132;-63
2022/12/13 20:51:03;;;;;;;1.50;1.40;;;;;;;;;;7373568;19;20148;-63
2022/12/13 20:53:36;;;;;;;2.07;1.47;;;;;;;;;;7380914;19;20163;-63
2022/12/13 20:56:03;;;;;;;1.57;1.47;;;;;;;;;;7365730;19;20143;-63
2022/12/13 20:58:28;;;;;;;1.40;1.30;;;;;;;;;;7367540;19;20121;-63
2022/12/13 21:00:54;;;;;;;1.40;1.30;;;;;;;;;;7366783;19;20180;-63
2022/12/13 21:03:19;;;;;;;0.87;0.87;;;;;;;;;;7364893;19;20267;-63
2022/12/13 21:05:46;;;;;;;4.10;1.20;;;;;;;;;;7369307;19;20133;-63
2022/12/13 21:10:57;;;;;;;0.83;0.83;;;;;;;;;;7362738;19;20216;-63
2022/12/13 21:13:22;;;;;;;2.30;1.93;;;;;;;;;;7354408;19;20712;-63
2022/12/13 21:15:48;;;;;;;2.23;2.03;;;;;;;;;;7351977;19;20132;-63
2022/12/13 21:18:13;;;;;;;2.07;1.97;;;;;;;;;;7372246;19;20116;-63
2022/12/13 21:20:38;;;;;;;1.53;1.47;;;;;;;;;;7358143;19;20141;-63
2022/12/13 21:23:04;;;;;;;1.60;1.47;;;;;;;;;;7368098;19;20161;-63
2022/12/13 21:25:29;;;;;;;1.63;1.10;;;;;;;;;;7362150;19;20128;-63
2022/12/13 21:27:55;;;;;;;1.53;1.43;;;;;;;;;;7365009;19;20161;-63
2022/12/13 21:30:21;;;;;;;1.40;1.30;;;;;;;;;;7360779;19;20223;-63
2022/12/13 21:32:46;;;;;;;1.77;1.67;;;;;;;;;;7363024;19;20141;-63
2022/12/13 21:35:12;;;;;;;1.50;1.10;;;;;;;;;;7368516;19;20773;-63
2022/12/13 21:37:37;;;;;;;1.63;1.40;;;;;;;;;;7358303;19;20129;-63
2022/12/13 21:40:03;;;;;;;2.13;1.93;;;;;;;;;;7361228;19;20469;-62
2022/12/13 21:42:28;;;;;;;2.27;1.43;;;;;;;;;;7368415;19;20526;-63
2022/12/13 21:44:54;;;;;;;1.07;1.03;;;;;;;;;;7365294;19;20451;-63
2022/12/13 21:47:19;;;;;;;1.43;1.33;;;;;;;;;;7349725;19;20125;-62
2022/12/13 21:49:44;;;;;;;1.23;1.17;;;;;;;;;;7365428;19;20130;-63
2022/12/13 21:52:10;;;;;;;0.77;0.77;;;;;;;;;;7375565;19;20173;-63
2022/12/13 21:54:35;;;;;;;1.83;1.73;;;;;;;;;;7364400;19;20129;-63
2022/12/13 21:59:44;;;;;;;0.87;0.87;;;;;;;;;;7360797;19;20909;-62
2022/12/13 22:02:11;;;;;;;1.43;1.07;;;;;;;;;;7360737;19;20137;-62
2022/12/13 22:04:36;;;;;;;1.60;1.50;;;;;;;;;;7367840;19;20133;-62
2022/12/13 22:07:03;;;;;;;1.70;1.30;;;;;;;;;;7368892;19;20145;-62
2022/12/13 22:09:28;;;;;;;1.00;0.80;;;;;;;;;;7377949;19;20131;-62
2022/12/13 22:11:54;;;;;;;2.20;1.40;;;;;;;;;;7368245;19;20492;-62
2022/12/13 22:14:20;;;;;;;1.83;1.73;;;;;;;;;;7381053;19;20145;-63
2022/12/13 22:16:45;;;;;;;1.27;1.27;;;;;;;;;;7383406;19;20490;-62
2022/12/13 22:19:12;;;;;;;1.50;1.40;;;;;;;;;;7376092;19;20618;-62
2022/12/13 22:21:37;;;;;;;0.50;0.50;;;;;;;;;;7380929;19;20128;-62
2022/12/13 22:24:03;;;;;;;1.07;1.07;;;;;;;;;;7380518;19;20388;-62
2022/12/13 22:26:28;;;;;;;1.53;1.17;;;;;;;;;;7380411;19;20558;-62
2022/12/13 22:28:56;;;;;;;2.37;1.30;;;;;;;;;;7387900;19;20137;-62
2022/12/13 22:31:21;;;;;;;1.70;1.30;;;;;;;;;;7375171;19;20121;-62
2022/12/13 22:33:46;;;;;;;1.00;1.00;;;;;;;;;;7377842;19;20617;-63
2022/12/13 22:36:11;;;;;;;0.87;0.73;;;;;;;;;;7379931;19;20154;-62
2022/12/13 22:38:37;;;;;;;2.00;1.27;;;;;;;;;;7379169;19;20428;-62
2022/12/13 22:41:03;;;;;;;1.43;1.33;;;;;;;;;;7368923;19;20129;-62
2022/12/13 22:43:35;;;;;;;1.10;0.97;;;;;;;;;;7362835;19;20163;-62
2022/12/13 22:46:06;;;;;;;1.10;1.00;;;;;;;;;;7373787;19;20137;-62
2022/12/13 22:48:32;;;;;;;1.67;1.57;;;;;;;;;;7384402;19;20396;-62
2022/12/13 22:51:02;;;;;;;0.97;0.97;;;;;;;;;;7381939;19;21161;-62
2022/12/13 22:53:28;;;;;;;0.93;0.93;;;;;;;;;;7377429;19;20220;-62
2022/12/13 22:55:53;;;;;;;1.53;1.17;;;;;;;;;;7378560;19;20817;-62
2022/12/13 22:58:18;;;;;;;0.70;0.70;;;;;;;;;;7380799;19;20146;-62
2022/12/13 23:00:44;;;;;;;2.17;1.50;;;;;;;;;;7370449;19;20121;-62
2022/12/13 23:03:09;;;;;;;1.47;1.37;;;;;;;;;;7375204;19;20169;-62
2022/12/13 23:05:34;;;;;;;1.60;1.43;;;;;;;;;;7368158;19;20147;-63
2022/12/13 23:07:59;;;;;;;0.97;0.60;;;;;;;;;;7370094;19;20129;-62
2022/12/13 23:13:12;;;;;;;1.47;1.37;;;;;;;;;;7376424;19;20148;-62
2022/12/13 23:15:37;;;;;;;1.17;1.03;;;;;;;;;;7375828;19;20578;-62
2022/12/13 23:18:03;;;;;;;1.73;1.63;;;;;;;;;;7366204;19;20400;-62
2022/12/13 23:20:28;;;;;;;0.90;0.90;;;;;;;;;;7370816;19;20180;-62
2022/12/13 23:22:53;;;;;;;1.60;1.50;;;;;;;;;;7364622;19;20185;-62
2022/12/13 23:25:19;;;;;;;2.67;1.83;;;;;;;;;;7369582;19;20117;-64
2022/12/13 23:27:44;;;;;;;1.00;1.00;;;;;;;;;;7375534;19;20132;-65
2022/12/13 23:30:10;;;;;;;1.13;1.13;;;;;;;;;;7359866;19;20147;-65
2022/12/13 23:32:35;;;;;;;1.60;1.47;;;;;;;;;;7365376;19;20157;-65
2022/12/13 23:35:00;;;;;;;2.20;1.47;;;;;;;;;;7377596;19;20133;-64
2022/12/13 23:37:26;;;;;;;1.17;1.13;;;;;;;;;;7383820;19;20167;-65
2022/12/13 23:39:51;;;;;;;1.37;1.27;;;;;;;;;;7383728;19;20521;-65
2022/12/13 23:42:16;;;;;;;0.70;0.70;;;;;;;;;;7377158;19;20533;-65
2022/12/13 23:44:42;;;;;;;0.90;0.90;;;;;;;;;;7388245;19;20117;-65
2022/12/13 23:47:07;;;;;;;0.83;0.83;;;;;;;;;;7362764;19;20121;-64
2022/12/13 23:49:32;;;;;;;1.17;1.17;;;;;;;;;;7375245;19;20121;-65
2022/12/13 23:51:57;;;;;;;1.37;1.27;;;;;;;;;;7384612;19;20148;-65
2022/12/13 23:54:23;;;;;;;1.20;1.20;;;;;;;;;;7384905;19;20124;-65
2022/12/13 23:56:48;;;;;;;1.63;1.50;;;;;;;;;;7378738;19;20535;-65
2022/12/13 23:59:13;;;;;;;1.43;1.23;;;;;;;;;;7384953;19;20168;-65
